Time;durP1;ratioP1;P1;durP2;ratioP2;P2;SDS_P1;SDS_P2;PMS_P1;PMS_P2;Temp;Humidity;BMP_temperature;BMP_pressure;BME280_temperature;BME280_humidity;BME280_pressure;Samples;Min_cycle;Max_cycle;Signal;HPM_P1;HPM_P2
2022/05/17 00:00:30;;;;;;;116.43;46.37;;;;;;;-145.18;100.00;60484.78;5030914;28;20033;-67
2022/05/17 00:02:57;;;;;;;110.57;45.33;;;;;;;-145.18;100.00;60484.78;5034034;28;20501;-67
2022/05/17 00:05:22;;;;;;;93.87;41.10;;;;;;;-145.18;100.00;60484.78;5036017;28;20740;-67
2022/05/17 00:07:48;;;;;;;106.37;43.17;;;;;;;-145.18;100.00;60484.78;5040108;28;20021;-67
2022/05/17 00:10:13;;;;;;;95.47;43.33;;;;;;;-145.18;100.00;60484.78;5035852;28;20477;-67
2022/05/17 00:12:38;;;;;;;88.00;42.10;;;;;;;-145.18;100.00;60484.78;5035559;28;20029;-67
2022/05/17 00:15:05;;;;;;;85.70;42.27;;;;;;;-145.18;100.00;60484.78;5038491;28;20030;-67
2022/05/17 00:17:31;;;;;;;87.27;41.60;;;;;;;-145.18;100.00;60484.78;5041737;28;20465;-67
2022/05/17 00:19:57;;;;;;;81.27;38.33;;;;;;;-145.18;100.00;60484.78;5038843;28;20068;-67
2022/05/17 00:22:22;;;;;;;79.00;40.00;;;;;;;-145.18;100.00;60484.78;5030413;28;20033;-67
2022/05/17 00:24:48;;;;;;;73.87;37.87;;;;;;;-145.18;100.00;60484.78;5030468;28;20421;-67
2022/05/17 00:27:13;;;;;;;77.60;37.70;;;;;;;-145.18;100.00;60484.78;5036633;28;20565;-67
2022/05/17 00:29:39;;;;;;;80.73;38.90;;;;;;;-145.18;100.00;60484.78;5030044;28;20037;-67
2022/05/17 00:32:05;;;;;;;81.00;37.73;;;;;;;-145.18;100.00;60484.78;5032897;28;20075;-67
2022/05/17 00:34:31;;;;;;;72.00;37.33;;;;;;;-145.18;100.00;60484.78;5036121;28;20017;-67
2022/05/17 00:36:57;;;;;;;70.47;36.80;;;;;;;-145.18;100.00;60484.78;5038005;28;20028;-67
2022/05/17 00:39:23;;;;;;;61.50;35.67;;;;;;;-145.18;100.00;60484.78;5044503;28;20136;-67
2022/05/17 00:41:49;;;;;;;67.47;35.83;;;;;;;-145.18;100.00;60484.78;5040101;28;20033;-68
2022/05/17 00:47:04;;;;;;;74.67;37.20;;;;;;;-145.18;100.00;60484.78;5034953;28;20040;-67
2022/05/17 00:49:38;;;;;;;71.60;36.03;;;;;;;-145.18;100.00;60484.78;5034751;28;20043;-67
2022/05/17 00:52:11;;;;;;;78.07;37.17;;;;;;;-145.18;100.00;60484.78;5038485;28;20120;-67
2022/05/17 00:54:38;;;;;;;70.90;35.90;;;;;;;-145.18;100.00;60484.78;5050525;28;20032;-67
2022/05/17 00:57:22;;;;;;;76.80;35.93;;;;;;;-145.18;100.00;60484.78;5038251;28;20079;-67
2022/05/17 00:59:49;;;;;;;65.43;34.40;;;;;;;-145.18;100.00;60484.78;5050625;28;20021;-67
2022/05/17 01:02:14;;;;;;;78.23;36.37;;;;;;;-145.18;100.00;60484.78;5034064;28;20759;-67
2022/05/17 01:04:41;;;;;;;75.33;36.37;;;;;;;-145.18;100.00;60484.78;5036361;28;20021;-67
2022/05/17 01:07:20;;;;;;;72.90;35.70;;;;;;;-145.18;100.00;60484.78;5047338;28;20032;-67
2022/05/17 01:09:45;;;;;;;78.23;36.80;;;;;;;-145.18;100.00;60484.78;5034537;28;20493;-67
2022/05/17 01:12:11;;;;;;;71.43;36.87;;;;;;;-145.18;100.00;60484.78;5036838;28;20056;-67
2022/05/17 01:14:57;;;;;;;82.57;37.57;;;;;;;-145.18;100.00;60484.78;5047975;28;20032;-67
2022/05/17 01:17:32;;;;;;;90.60;39.20;;;;;;;-145.18;100.00;60484.78;5033191;28;20050;-67
2022/05/17 01:19:58;;;;;;;76.73;35.90;;;;;;;-145.18;100.00;60484.78;5034260;28;20099;-67
2022/05/17 01:22:23;;;;;;;86.90;39.67;;;;;;;-145.18;100.00;60484.78;5033829;28;20032;-67
2022/05/17 01:24:49;;;;;;;83.97;39.40;;;;;;;-145.18;100.00;60484.78;5043732;28;20080;-67
2022/05/17 01:27:21;;;;;;;85.70;39.90;;;;;;;-145.18;100.00;60484.78;5040346;28;20147;-67
2022/05/17 01:29:48;;;;;;;81.35;38.15;;;;;;;-145.18;100.00;60484.78;5033100;28;20401;-67
2022/05/17 01:32:14;;;;;;;84.07;37.93;;;;;;;-145.18;100.00;60484.78;5040255;28;20492;-68
2022/05/17 01:34:40;;;;;;;85.73;38.10;;;;;;;-145.18;100.00;60484.78;5047282;28;20146;-67
2022/05/17 01:37:07;;;;;;;77.10;37.53;;;;;;;-145.18;100.00;60484.78;5034103;28;20497;-67
2022/05/17 01:39:33;;;;;;;80.60;38.57;;;;;;;-145.18;100.00;60484.78;5038099;28;20021;-67
2022/05/17 01:41:59;;;;;;;97.00;40.33;;;;;;;-145.18;100.00;60484.78;5034115;28;20025;-67
2022/05/17 01:44:24;;;;;;;104.13;43.30;;;;;;;-145.18;100.00;60484.78;5035585;28;20017;-67
2022/05/17 01:46:50;;;;;;;104.43;42.97;;;;;;;-145.18;100.00;60484.78;5034395;28;20030;-67
2022/05/17 01:49:15;;;;;;;103.43;42.57;;;;;;;-145.18;100.00;60484.78;5033621;28;20092;-67
2022/05/17 01:51:41;;;;;;;103.77;43.63;;;;;;;-145.18;100.00;60484.78;5041172;28;20108;-67
2022/05/17 01:54:06;;;;;;;120.10;46.50;;;;;;;-145.18;100.00;60484.78;5040301;28;20021;-67
2022/05/17 01:56:33;;;;;;;123.47;47.13;;;;;;;-145.18;100.00;60484.78;5031269;28;20013;-67
2022/05/17 01:58:58;;;;;;;118.03;46.67;;;;;;;-145.18;100.00;60484.78;5043408;28;20107;-67
2022/05/17 02:01:24;;;;;;;107.43;45.10;;;;;;;-145.18;100.00;60484.78;5041219;28;20025;-67
2022/05/17 02:03:49;;;;;;;113.77;44.43;;;;;;;-145.18;100.00;60484.78;5044110;28;20039;-68
2022/05/17 02:06:15;;;;;;;114.60;45.70;;;;;;;-145.18;100.00;60484.78;5034062;28;20109;-67
2022/05/17 02:08:40;;;;;;;117.90;45.97;;;;;;;-145.18;100.00;60484.78;5043790;28;20473;-67
2022/05/17 02:11:05;;;;;;;112.67;46.07;;;;;;;-145.18;100.00;60484.78;5047852;28;20397;-67
2022/05/17 02:13:31;;;;;;;112.53;44.83;;;;;;;-145.18;100.00;60484.78;5051505;28;20040;-67
2022/05/17 02:15:57;;;;;;;104.10;44.77;;;;;;;-145.18;100.00;60484.78;5045187;28;20513;-67
2022/05/17 02:18:23;;;;;;;103.70;44.13;;;;;;;-145.18;100.00;60484.78;5040623;28;20029;-67
2022/05/17 02:20:48;;;;;;;110.63;43.43;;;;;;;-145.18;100.00;60484.78;5035683;28;20108;-67
2022/05/17 02:23:14;;;;;;;92.13;42.23;;;;;;;-145.18;100.00;60484.78;5032991;28;20091;-68
2022/05/17 02:25:39;;;;;;;90.40;40.27;;;;;;;-145.18;100.00;60484.78;5042681;28;20463;-67
2022/05/17 02:28:07;;;;;;;93.90;39.60;;;;;;;-145.18;100.00;60484.78;5035480;28;20467;-67
2022/05/17 02:30:33;;;;;;;94.27;41.50;;;;;;;-145.18;100.00;60484.78;5035306;28;20025;-67
2022/05/17 02:32:58;;;;;;;91.00;41.13;;;;;;;-145.18;100.00;60484.78;5030941;28;20025;-67
2022/05/17 02:35:24;;;;;;;89.10;39.47;;;;;;;-145.18;100.00;60484.78;5033669;28;20022;-67
2022/05/17 02:37:49;;;;;;;83.70;37.93;;;;;;;-145.18;100.00;60484.78;5044848;28;20052;-67
2022/05/17 02:40:14;;;;;;;77.70;37.00;;;;;;;-145.18;100.00;60484.78;5034291;28;20453;-67
2022/05/17 02:42:40;;;;;;;83.87;38.20;;;;;;;-145.18;100.00;60484.78;5034572;28;20079;-67
2022/05/17 02:45:06;;;;;;;76.83;35.07;;;;;;;-145.18;100.00;60484.78;5039650;28;20083;-67
2022/05/17 02:47:33;;;;;;;84.27;37.67;;;;;;;-145.18;100.00;60484.78;5031042;28;20018;-67
2022/05/17 02:49:59;;;;;;;75.13;35.60;;;;;;;-145.18;100.00;60484.78;5031616;28;20094;-68
2022/05/17 02:52:24;;;;;;;76.80;34.87;;;;;;;-145.18;100.00;60484.78;5031041;28;20027;-67
2022/05/17 02:54:49;;;;;;;78.03;36.13;;;;;;;-145.18;100.00;60484.78;5042286;28;20029;-67
2022/05/17 02:57:15;;;;;;;78.10;35.07;;;;;;;-145.18;100.00;60484.78;5034891;28;20044;-67
2022/05/17 02:59:40;;;;;;;71.83;34.83;;;;;;;-145.18;100.00;60484.78;5038281;28;20033;-67
2022/05/17 03:02:05;;;;;;;70.80;33.17;;;;;;;-145.18;100.00;60484.78;5032495;28;20392;-67
2022/05/17 03:04:31;;;;;;;70.73;33.53;;;;;;;-145.18;100.00;60484.78;5041688;28;20017;-67
2022/05/17 03:06:57;;;;;;;86.60;35.53;;;;;;;-145.18;100.00;60484.78;5034927;28;20021;-67
2022/05/17 03:09:22;;;;;;;79.90;35.37;;;;;;;-145.18;100.00;60484.78;5042974;28;20080;-67
2022/05/17 03:11:47;;;;;;;75.40;35.33;;;;;;;-145.18;100.00;60484.78;5038298;28;20017;-67
2022/05/17 03:14:17;;;;;;;76.10;36.10;;;;;;;-145.18;100.00;60484.78;5042197;28;20052;-67
2022/05/17 03:16:42;;;;;;;79.03;37.47;;;;;;;-145.18;100.00;60484.78;5049300;28;20048;-67
2022/05/17 03:19:08;;;;;;;80.67;35.87;;;;;;;-145.18;100.00;60484.78;5041424;28;20075;-67
2022/05/17 03:21:33;;;;;;;80.57;36.13;;;;;;;-145.18;100.00;60484.78;5030497;28;20017;-67
2022/05/17 03:23:59;;;;;;;81.27;34.93;;;;;;;-145.18;100.00;60484.78;5038766;28;20070;-67
2022/05/17 03:26:25;;;;;;;81.70;35.50;;;;;;;-145.18;100.00;60484.78;5035715;28;20461;-67
2022/05/17 03:28:51;;;;;;;87.67;37.10;;;;;;;-145.18;100.00;60484.78;5035208;28;20476;-67
2022/05/17 03:31:17;;;;;;;86.10;37.97;;;;;;;-145.18;100.00;60484.78;5031316;28;20354;-67
2022/05/17 03:33:42;;;;;;;89.93;37.97;;;;;;;-145.18;100.00;60484.78;5037279;28;20024;-67
2022/05/17 03:36:09;;;;;;;88.97;37.73;;;;;;;-145.18;100.00;60484.78;5034808;28;20017;-67
2022/05/17 03:38:35;;;;;;;90.50;38.73;;;;;;;-145.18;100.00;60484.78;5038786;28;20021;-67
2022/05/17 03:41:01;;;;;;;87.13;37.97;;;;;;;-145.18;100.00;60484.78;5032115;28;20056;-67
2022/05/17 03:43:27;;;;;;;87.23;37.27;;;;;;;-145.18;100.00;60484.78;5029671;28;20127;-67
2022/05/17 03:45:57;;;;;;;83.27;37.13;;;;;;;-145.18;100.00;60484.78;5032355;28;20029;-67
2022/05/17 03:48:25;;;;;;;88.50;37.17;;;;;;;-145.18;100.00;60484.78;5040529;28;20029;-67
2022/05/17 03:50:51;;;;;;;75.57;34.53;;;;;;;-145.18;100.00;60484.78;5048407;28;20021;-67
2022/05/17 03:53:17;;;;;;;89.43;36.10;;;;;;;-145.18;100.00;60484.78;5047406;28;20051;-67
2022/05/17 03:55:42;;;;;;;82.50;34.93;;;;;;;-145.18;100.00;60484.78;5036182;28;20022;-67
2022/05/17 03:58:08;;;;;;;79.90;33.73;;;;;;;-145.18;100.00;60484.78;5030609;28;20485;-67
2022/05/17 04:00:34;;;;;;;76.47;33.33;;;;;;;-145.18;100.00;60484.78;5032362;28;20033;-67
2022/05/17 04:02:59;;;;;;;76.97;33.20;;;;;;;-145.18;100.00;60484.78;5041725;28;20482;-67
2022/05/17 04:05:25;;;;;;;77.93;32.30;;;;;;;-145.18;100.00;60484.78;5030334;28;20089;-67
2022/05/17 04:07:50;;;;;;;76.97;32.53;;;;;;;-145.18;100.00;60484.78;5046185;28;20056;-68
2022/05/17 04:10:16;;;;;;;69.50;30.97;;;;;;;-145.18;100.00;60484.78;5039397;28;20527;-67
2022/05/17 04:12:43;;;;;;;70.80;30.27;;;;;;;-145.18;100.00;60484.78;5032625;28;20067;-67
2022/05/17 04:15:12;;;;;;;60.07;30.63;;;;;;;-145.18;100.00;60484.78;5042365;28;20080;-67
2022/05/17 04:17:38;;;;;;;66.83;30.20;;;;;;;-145.18;100.00;60484.78;5049188;28;20024;-68
2022/05/17 04:20:04;;;;;;;50.10;27.60;;;;;;;-145.18;100.00;60484.78;5046396;28;20032;-68
2022/05/17 04:22:29;;;;;;;49.33;25.47;;;;;;;-145.18;100.00;60484.78;5049015;28;20021;-68
2022/05/17 04:24:56;;;;;;;36.87;20.47;;;;;;;-145.18;100.00;60484.78;5043671;28;20033;-68
2022/05/17 04:27:22;;;;;;;37.73;18.83;;;;;;;-145.18;100.00;60484.78;5035199;28;20393;-68
2022/05/17 04:29:48;;;;;;;32.20;17.17;;;;;;;-145.18;100.00;60484.78;5041106;28;20090;-68
2022/05/17 04:32:13;;;;;;;28.60;16.02;;;;;;;-145.18;100.00;60484.78;5035490;28;20837;-68
2022/05/17 04:34:39;;;;;;;25.33;14.32;;;;;;;-145.18;100.00;60484.78;5038577;28;20079;-68
2022/05/17 04:37:04;;;;;;;24.33;14.80;;;;;;;-145.18;100.00;60484.78;5041822;28;20242;-68
2022/05/17 04:39:30;;;;;;;24.67;13.40;;;;;;;-145.18;100.00;60484.78;5039873;28;20033;-68
2022/05/17 04:41:56;;;;;;;28.17;12.32;;;;;;;-145.18;100.00;60484.78;5042705;28;20029;-68
2022/05/17 04:44:22;;;;;;;20.10;11.43;;;;;;;-145.18;100.00;60484.78;5048764;28;20508;-68
2022/05/17 04:46:47;;;;;;;21.05;11.25;;;;;;;-145.18;100.00;60484.78;5035558;28;20029;-68
2022/05/17 04:49:13;;;;;;;23.40;12.98;;;;;;;-145.18;100.00;60484.78;5050504;28;20025;-68
2022/05/17 04:51:38;;;;;;;22.80;11.32;;;;;;;-145.18;100.00;60484.78;5050860;28;20062;-68
2022/05/17 04:54:03;;;;;;;20.98;10.55;;;;;;;-145.18;100.00;60484.78;5039828;28;20041;-68
2022/05/17 04:56:29;;;;;;;17.17;11.40;;;;;;;-145.18;100.00;60484.78;5039583;28;20033;-68
2022/05/17 04:58:55;;;;;;;22.65;10.95;;;;;;;-145.18;100.00;60484.78;5038132;28;20040;-68
2022/05/17 05:01:21;;;;;;;19.65;11.30;;;;;;;-145.18;100.00;60484.78;5037852;28;20560;-68
2022/05/17 05:03:46;;;;;;;19.40;10.85;;;;;;;-145.18;100.00;60484.78;5037941;28;20037;-68
2022/05/17 05:06:12;;;;;;;20.10;10.30;;;;;;;-145.18;100.00;60484.78;5036673;28;20401;-68
2022/05/17 05:08:37;;;;;;;17.48;9.82;;;;;;;-145.18;100.00;60484.78;5036356;28;20435;-67
2022/05/17 05:11:03;;;;;;;20.30;10.30;;;;;;;-145.18;100.00;60484.78;5034053;28;20895;-68
2022/05/17 05:13:28;;;;;;;17.38;9.93;;;;;;;-145.18;100.00;60484.78;5038622;28;20036;-68
2022/05/17 05:15:56;;;;;;;16.75;9.40;;;;;;;-145.18;100.00;60484.78;5029715;28;20385;-67
2022/05/17 05:18:23;;;;;;;17.38;9.80;;;;;;;-145.18;100.00;60484.78;5034123;28;20041;-68
2022/05/17 05:20:49;;;;;;;19.17;9.30;;;;;;;-145.18;100.00;60484.78;5034838;28;20064;-68
2022/05/17 05:23:14;;;;;;;16.50;9.05;;;;;;;-145.18;100.00;60484.78;5039208;28;20065;-68
2022/05/17 05:25:40;;;;;;;17.77;8.40;;;;;;;-145.18;100.00;60484.78;5035872;28;20076;-68
2022/05/17 05:28:08;;;;;;;18.42;8.90;;;;;;;-145.18;100.00;60484.78;5043165;28;20036;-68
2022/05/17 05:30:34;;;;;;;20.17;8.77;;;;;;;-145.18;100.00;60484.78;5040282;28;20477;-68
2022/05/17 05:32:59;;;;;;;18.77;9.00;;;;;;;-145.18;100.00;60484.78;5032716;28;20080;-68
2022/05/17 05:35:25;;;;;;;16.25;8.43;;;;;;;-145.18;100.00;60484.78;5033471;28;20060;-68
2022/05/17 05:37:52;;;;;;;15.25;8.25;;;;;;;-145.18;100.00;60484.78;5033375;28;20112;-68
2022/05/17 05:40:18;;;;;;;16.48;7.88;;;;;;;-145.18;100.00;60484.78;5032936;28;20022;-68
2022/05/17 05:42:44;;;;;;;18.10;7.72;;;;;;;-145.18;100.00;60484.78;5033487;28;20017;-68
2022/05/17 05:45:11;;;;;;;15.95;7.43;;;;;;;-145.18;100.00;60484.78;5037745;28;20037;-68
2022/05/17 05:47:37;;;;;;;17.77;7.60;;;;;;;-145.18;100.00;60484.78;5036137;28;20482;-68
2022/05/17 05:50:03;;;;;;;17.38;7.03;;;;;;;-145.18;100.00;60484.78;5032916;28;20029;-68
2022/05/17 05:52:29;;;;;;;13.65;7.32;;;;;;;-145.18;100.00;60484.78;5046975;28;20032;-68
2022/05/17 05:54:55;;;;;;;14.40;6.70;;;;;;;-145.18;100.00;60484.78;5038970;28;20401;-67
2022/05/17 05:57:20;;;;;;;12.65;6.72;;;;;;;-145.18;100.00;60484.78;5032896;28;20021;-67
2022/05/17 05:59:46;;;;;;;14.88;7.18;;;;;;;-145.18;100.00;60484.78;5033261;28;20818;-68
2022/05/17 06:02:11;;;;;;;15.27;7.13;;;;;;;-145.18;100.00;60484.78;5032569;28;20033;-68
2022/05/17 06:04:37;;;;;;;19.52;6.93;;;;;;;-145.18;100.00;60484.78;5033316;28;20410;-67
2022/05/17 06:07:04;;;;;;;21.45;6.93;;;;;;;-145.18;100.00;60484.78;5043731;28;20029;-68
2022/05/17 06:09:29;;;;;;;13.43;5.95;;;;;;;-145.18;100.00;60484.78;5048981;28;20516;-68
2022/05/17 06:11:55;;;;;;;11.23;5.80;;;;;;;-145.18;100.00;60484.78;5032587;28;20049;-67
2022/05/17 06:14:21;;;;;;;12.82;5.50;;;;;;;-145.18;100.00;60484.78;5033085;28;20104;-67
2022/05/17 06:16:47;;;;;;;13.38;5.53;;;;;;;-145.18;100.00;60484.78;5032363;28;20796;-68
2022/05/17 06:19:13;;;;;;;14.93;5.97;;;;;;;-145.18;100.00;60484.78;5032717;28;20412;-67
2022/05/17 06:21:38;;;;;;;13.65;5.93;;;;;;;-145.18;100.00;60484.78;5032735;28;20028;-68
2022/05/17 06:24:04;;;;;;;12.82;6.25;;;;;;;-145.18;100.00;60484.78;5043434;28;20425;-67
2022/05/17 06:26:30;;;;;;;13.95;6.03;;;;;;;-145.18;100.00;60484.78;5042659;28;20030;-67
2022/05/17 06:28:56;;;;;;;11.45;5.80;;;;;;;-145.18;100.00;60484.78;5032303;28;20116;-67
2022/05/17 06:31:21;;;;;;;14.95;5.95;;;;;;;-145.18;100.00;60484.78;5032947;28;20075;-67
2022/05/17 06:33:46;;;;;;;13.10;5.55;;;;;;;-145.18;100.00;60484.78;5032277;28;20809;-67
2022/05/17 06:36:12;;;;;;;13.32;6.20;;;;;;;-145.18;100.00;60484.78;5032296;28;20497;-67
2022/05/17 06:38:37;;;;;;;12.02;5.63;;;;;;;-145.18;100.00;60484.78;5032033;28;20485;-67
2022/05/17 06:41:04;;;;;;;17.58;5.82;;;;;;;-145.18;100.00;60484.78;5047435;28;20124;-67
2022/05/17 06:43:29;;;;;;;14.13;6.00;;;;;;;-145.18;100.00;60484.78;5046650;28;20051;-67
2022/05/17 06:45:55;;;;;;;13.98;5.68;;;;;;;-145.18;100.00;60484.78;5031952;28;20469;-67
2022/05/17 06:48:20;;;;;;;13.10;5.60;;;;;;;-145.18;100.00;60484.78;5042725;28;20144;-67
2022/05/17 06:50:46;;;;;;;11.65;5.13;;;;;;;-145.18;100.00;60484.78;5050629;28;20025;-67
2022/05/17 06:53:12;;;;;;;14.00;6.20;;;;;;;-145.18;100.00;60484.78;5050879;28;20074;-67
2022/05/17 06:55:38;;;;;;;19.08;5.55;;;;;;;-145.18;100.00;60484.78;5050233;28;20259;-67
2022/05/17 06:58:03;;;;;;;14.40;5.47;;;;;;;-145.18;100.00;60484.78;5039719;28;20057;-68
2022/05/17 07:00:29;;;;;;;11.02;5.00;;;;;;;-145.18;100.00;60484.78;5035319;28;20060;-67
2022/05/17 07:02:55;;;;;;;16.17;6.07;;;;;;;-145.18;100.00;60484.78;5050706;28;20400;-67
2022/05/17 07:05:20;;;;;;;11.25;5.25;;;;;;;-145.18;100.00;60484.78;5049931;28;20099;-67
2022/05/17 07:07:46;;;;;;;11.43;5.18;;;;;;;-145.18;100.00;60484.78;5050197;28;20028;-67
2022/05/17 07:13:08;;;;;;;12.00;4.85;;;;;;;-145.18;100.00;60484.78;5031813;28;20578;-67
2022/05/17 07:15:39;;;;;;;16.90;5.90;;;;;;;-145.18;100.00;60484.78;5041133;28;20009;-67
2022/05/17 07:18:07;;;;;;;15.95;5.50;;;;;;;-145.18;100.00;60484.78;5031656;28;20798;-67
2022/05/17 07:20:32;;;;;;;13.43;5.63;;;;;;;-145.18;100.00;60484.78;5031246;28;20029;-67
2022/05/17 07:22:58;;;;;;;11.65;5.20;;;;;;;-145.18;100.00;60484.78;5031523;28;20032;-67
2022/05/17 07:25:23;;;;;;;13.80;5.43;;;;;;;-145.18;100.00;60484.78;5031175;28;20025;-67
2022/05/17 07:27:49;;;;;;;10.48;5.03;;;;;;;-145.18;100.00;60484.78;5031074;28;20065;-67
2022/05/17 07:30:14;;;;;;;16.80;5.85;;;;;;;-145.18;100.00;60484.78;5031995;28;20029;-68
2022/05/17 07:32:40;;;;;;;10.90;4.70;;;;;;;-145.18;100.00;60484.78;5046960;28;20072;-68
2022/05/17 07:35:08;;;;;;;10.55;5.32;;;;;;;-145.18;100.00;60484.78;5049817;28;20461;-67
2022/05/17 07:37:34;;;;;;;11.02;5.07;;;;;;;-145.18;100.00;60484.78;5031374;28;20079;-67
2022/05/17 07:40:00;;;;;;;10.27;5.03;;;;;;;-145.18;100.00;60484.78;5031052;28;20428;-67
2022/05/17 07:42:26;;;;;;;11.35;4.95;;;;;;;-145.18;100.00;60484.78;5031295;28;20036;-67
2022/05/17 07:44:51;;;;;;;14.77;5.18;;;;;;;-145.18;100.00;60484.78;5030955;28;20584;-67
2022/05/17 07:47:17;;;;;;;12.00;4.93;;;;;;;-145.18;100.00;60484.78;5030893;28;20034;-67
2022/05/17 07:49:43;;;;;;;11.98;5.78;;;;;;;-145.18;100.00;60484.78;5044687;28;20092;-67
2022/05/17 07:52:10;;;;;;;12.02;5.20;;;;;;;-145.18;100.00;60484.78;5030890;28;20464;-67
2022/05/17 07:54:37;;;;;;;12.93;4.50;;;;;;;-145.18;100.00;60484.78;5031329;28;20470;-67
2022/05/17 07:57:04;;;;;;;12.77;4.80;;;;;;;-145.18;100.00;60484.78;5031503;28;20497;-68
2022/05/17 07:59:30;;;;;;;13.65;5.28;;;;;;;-145.18;100.00;60484.78;5031403;28;20363;-67
2022/05/17 08:01:55;;;;;;;13.93;5.22;;;;;;;-145.18;100.00;60484.78;5032924;28;20017;-68
2022/05/17 08:04:23;;;;;;;9.40;3.95;;;;;;;-145.18;100.00;60484.78;5049440;28;20087;-67
2022/05/17 08:06:49;;;;;;;12.77;4.80;;;;;;;-145.18;100.00;60484.78;5031715;28;20021;-67
2022/05/17 08:09:14;;;;;;;10.70;4.70;;;;;;;-145.18;100.00;60484.78;5030671;28;20385;-67
2022/05/17 08:11:40;;;;;;;12.00;4.47;;;;;;;-145.18;100.00;60484.78;5030900;28;20082;-66
2022/05/17 08:14:05;;;;;;;14.23;4.72;;;;;;;-145.18;100.00;60484.78;5030548;28;20025;-66
2022/05/17 08:16:31;;;;;;;11.93;5.20;;;;;;;-145.18;100.00;60484.78;5030996;28;20026;-66
2022/05/17 08:18:56;;;;;;;12.52;4.50;;;;;;;-145.18;100.00;60484.78;5030651;28;20026;-67
2022/05/17 08:21:21;;;;;;;12.95;5.10;;;;;;;-145.18;100.00;60484.78;5030477;28;20025;-68
2022/05/17 08:23:47;;;;;;;12.20;4.55;;;;;;;-145.18;100.00;60484.78;5030553;28;20025;-67
2022/05/17 08:28:57;;;;;;;12.77;4.50;;;;;;;-145.18;100.00;60484.78;5040535;28;20068;-67
2022/05/17 08:31:23;;;;;;;16.92;5.30;;;;;;;-145.18;100.00;60484.78;5030320;28;20048;-67
2022/05/17 08:33:49;;;;;;;10.02;5.05;;;;;;;-145.18;100.00;60484.78;5030467;28;20079;-67
2022/05/17 08:36:14;;;;;;;12.13;4.40;;;;;;;-145.18;100.00;60484.78;5030610;28;20029;-67
2022/05/17 08:38:44;;;;;;;10.93;4.63;;;;;;;-145.18;100.00;60484.78;5030936;28;20033;-67
2022/05/17 08:41:09;;;;;;;11.52;5.35;;;;;;;-145.18;100.00;60484.78;5049103;28;20226;-67
2022/05/17 08:43:39;;;;;;;12.30;5.10;;;;;;;-145.18;100.00;60484.78;5048988;28;20024;-67
2022/05/17 08:46:23;;;;;;;11.50;4.80;;;;;;;-145.18;100.00;60484.78;5045241;28;20021;-67
2022/05/17 08:49:11;;;;;;;10.15;4.82;;;;;;;-145.18;100.00;60484.78;5049278;28;20028;-67
2022/05/17 08:51:41;;;;;;;8.98;4.20;;;;;;;-145.18;100.00;60484.78;5031911;28;20055;-67
2022/05/17 08:54:12;;;;;;;13.30;4.70;;;;;;;-145.18;100.00;60484.78;5030153;28;20090;-68
2022/05/17 08:56:41;;;;;;;;;;;;;;;-145.18;100.00;60484.78;5031448;28;20021;-67
2022/05/17 08:59:12;;;;;;;10.82;4.30;;;;;;;-145.18;100.00;60484.78;5037013;28;21296;-67
2022/05/17 09:01:45;;;;;;;11.23;4.35;;;;;;;-145.18;100.00;60484.78;5042829;28;20504;-67
2022/05/17 09:04:21;;;;;;;10.82;4.30;;;;;;;-145.18;100.00;60484.78;5030081;28;20038;-67
2022/05/17 09:07:12;;;;;;;11.27;4.15;;;;;;;-145.18;100.00;60484.78;5040460;28;20481;-67
2022/05/17 09:09:58;;;;;;;10.23;4.18;;;;;;;-145.18;100.00;60484.78;5048777;28;20095;-67
2022/05/17 09:12:36;;;;;;;9.95;4.05;;;;;;;-145.18;100.00;60484.78;5052107;28;20495;-67
2022/05/17 09:15:03;;;;;;;12.38;4.05;;;;;;;-145.18;100.00;60484.78;5034714;28;20036;-67
2022/05/17 09:17:29;;;;;;;9.10;4.28;;;;;;;-145.18;100.00;60484.78;5048375;28;20029;-67
2022/05/17 09:19:55;;;;;;;9.98;4.07;;;;;;;-145.18;100.00;60484.78;5052465;28;20028;-67
2022/05/17 09:22:22;;;;;;;8.70;3.70;;;;;;;-145.18;100.00;60484.78;5052113;28;20559;-67
2022/05/17 09:25:13;;;;;;;9.82;3.78;;;;;;;-145.18;100.00;60484.78;5043028;28;20047;-67
2022/05/17 09:27:39;;;;;;;9.20;3.47;;;;;;;-145.18;100.00;60484.78;5033401;28;20052;-67
2022/05/17 09:30:07;;;;;;;9.85;3.50;;;;;;;-145.18;100.00;60484.78;5037043;28;20029;-67
2022/05/17 09:32:38;;;;;;;11.43;3.13;;;;;;;-145.18;100.00;60484.78;5050080;28;20032;-67
2022/05/17 09:35:15;;;;;;;8.63;3.28;;;;;;;-145.18;100.00;60484.78;5051990;28;20032;-67
2022/05/17 09:37:45;;;;;;;7.32;2.88;;;;;;;-145.18;100.00;60484.78;5051666;28;20025;-67
2022/05/17 09:40:14;;;;;;;9.90;3.35;;;;;;;-145.18;100.00;60484.78;5052109;28;20040;-67
2022/05/17 09:42:58;;;;;;;9.65;2.97;;;;;;;-145.18;100.00;60484.78;5035690;28;20327;-67
2022/05/17 09:45:58;;;;;;;8.55;2.85;;;;;;;-145.18;100.00;60484.78;5049833;28;20100;-67
2022/05/17 09:48:26;;;;;;;9.32;2.50;;;;;;;-145.18;100.00;60484.78;5036822;28;20898;-66
2022/05/17 09:53:50;;;;;;;8.77;3.10;;;;;;;-145.18;100.00;60484.78;5037186;28;20108;-66
2022/05/17 09:56:16;;;;;;;10.35;3.13;;;;;;;-145.18;100.00;60484.78;5032844;28;20017;-67
2022/05/17 09:58:44;;;;;;;9.35;3.38;;;;;;;-145.18;100.00;60484.78;5031630;28;20529;-67
2022/05/17 10:01:17;;;;;;;8.00;2.78;;;;;;;-145.18;100.00;60484.78;5050061;28;20017;-67
2022/05/17 10:04:19;;;;;;;10.52;3.03;;;;;;;-145.18;100.00;60484.78;5034125;28;20494;-67
2022/05/17 10:06:47;;;;;;;7.30;2.90;;;;;;;-145.18;100.00;60484.78;5032518;28;20095;-67
2022/05/17 10:09:30;;;;;;;9.32;2.90;;;;;;;-145.18;100.00;60484.78;5038028;28;20037;-67
2022/05/17 10:12:12;;;;;;;7.97;2.80;;;;;;;-145.18;100.00;60484.78;5047898;28;20020;-67
2022/05/17 10:14:46;;;;;;;7.60;2.90;;;;;;;-145.18;100.00;60484.78;5041425;28;20021;-67
2022/05/17 10:17:38;;;;;;;10.48;2.85;;;;;;;-145.18;100.00;60484.78;5042251;28;20022;-68
2022/05/17 10:20:17;;;;;;;8.68;2.70;;;;;;;-145.18;100.00;60484.78;5049184;28;20448;-68
2022/05/17 10:22:58;;;;;;;9.30;3.08;;;;;;;-145.18;100.00;60484.78;5050300;28;20035;-67
2022/05/17 10:25:31;;;;;;;7.38;3.10;;;;;;;-145.18;100.00;60484.78;5049293;28;20053;-67
2022/05/17 10:28:02;;;;;;;8.15;2.80;;;;;;;-145.18;100.00;60484.78;5041008;28;20647;-67
2022/05/17 10:30:47;;;;;;;8.23;2.97;;;;;;;-145.18;100.00;60484.78;5032203;28;20017;-67
2022/05/17 10:33:31;;;;;;;8.93;3.00;;;;;;;-145.18;100.00;60484.78;5035694;28;20473;-67
2022/05/17 10:36:02;;;;;;;8.40;2.53;;;;;;;-145.18;100.00;60484.78;5038766;28;20071;-67
2022/05/17 10:38:34;;;;;;;7.72;2.60;;;;;;;-145.18;100.00;60484.78;5038332;28;20031;-67
2022/05/17 10:41:05;;;;;;;7.90;2.13;;;;;;;-145.18;100.00;60484.78;5049396;28;20040;-66
2022/05/17 10:43:33;;;;;;;;;;;;;;;-145.18;100.00;60484.78;5032561;28;20025;-67
2022/05/17 10:46:10;;;;;;;6.90;2.15;;;;;;;-145.18;100.00;60484.78;5032192;28;19913;-67
2022/05/17 10:49:13;;;;;;;5.90;1.95;;;;;;;-145.18;100.00;60484.78;5041242;28;20079;-68
2022/05/17 10:52:13;;;;;;;7.05;2.00;;;;;;;-145.18;100.00;60484.78;5049356;28;20476;-67
2022/05/17 10:54:47;;;;;;;7.22;2.30;;;;;;;-145.18;100.00;60484.78;5049637;28;20025;-67
2022/05/17 10:57:23;;;;;;;7.15;2.45;;;;;;;-145.18;100.00;60484.78;5031809;28;20508;-68
2022/05/17 11:00:18;;;;;;;7.57;1.88;;;;;;;-145.18;100.00;60484.78;5031608;28;20028;-68
2022/05/17 11:03:10;;;;;;;7.43;2.15;;;;;;;-145.18;100.00;60484.78;5036213;28;20059;-68
2022/05/17 11:06:00;;;;;;;6.97;2.25;;;;;;;-145.18;100.00;60484.78;5049208;28;20079;-67
2022/05/17 11:08:42;;;;;;;8.70;2.40;;;;;;;-145.18;100.00;60484.78;5035725;28;20025;-68
2022/05/17 11:11:42;;;;;;;6.38;2.17;;;;;;;-145.18;100.00;60484.78;5047933;28;20479;-68
2022/05/17 11:14:19;;;;;;;6.97;1.98;;;;;;;-145.18;100.00;60484.78;5035488;28;20565;-68
2022/05/17 11:16:57;;;;;;;5.18;2.03;;;;;;;-145.18;100.00;60484.78;5049708;28;20025;-68